sensor_id;sensor_type;location;lat;lon;timestamp;temperature;humidity
27544;DHT22;17996;51.056;3.656;2023-03-01T00:01:24;2.20;99.90
27544;DHT22;17996;51.056;3.656;2023-03-01T00:03:51;2.30;99.90
27544;DHT22;17996;51.056;3.656;2023-03-01T00:06:18;2.50;99.90
27544;DHT22;17996;51.056;3.656;2023-03-01T00:08:43;2.20;99.90
27544;DHT22;17996;51.056;3.656;2023-03-01T00:11:15;2.10;99.90
27544;DHT22;17996;51.056;3.656;2023-03-01T00:13:43;2.10;99.90
27544;DHT22;17996;51.056;3.656;2023-03-01T00:16:11;2.00;99.90
27544;DHT22;17996;51.056;3.656;2023-03-01T00:18:38;1.90;99.90
27544;DHT22;17996;51.056;3.656;2023-03-01T00:21:04;1.90;99.90
27544;DHT22;17996;51.056;3.656;2023-03-01T00:23:30;2.00;99.90
27544;DHT22;17996;51.056;3.656;2023-03-01T00:25:56;2.00;99.90
27544;DHT22;17996;51.056;3.656;2023-03-01T00:28:22;2.10;99.90
27544;DHT22;17996;51.056;3.656;2023-03-01T00:30:48;2.30;99.90
27544;DHT22;17996;51.056;3.656;2023-03-01T00:33:13;2.20;99.90
27544;DHT22;17996;51.056;3.656;2023-03-01T00:35:39;2.10;99.90
27544;DHT22;17996;51.056;3.656;2023-03-01T00:38:05;2.10;99.90
27544;DHT22;17996;51.056;3.656;2023-03-01T00:40:32;2.10;99.90
27544;DHT22;17996;51.056;3.656;2023-03-01T00:42:58;2.10;99.90
27544;DHT22;17996;51.056;3.656;2023-03-01T00:45:24;2.10;99.90
27544;DHT22;17996;51.056;3.656;2023-03-01T00:47:51;2.10;99.90
27544;DHT22;17996;51.056;3.656;2023-03-01T00:50:18;2.10;99.90
27544;DHT22;17996;51.056;3.656;2023-03-01T00:52:44;2.10;99.90
27544;DHT22;17996;51.056;3.656;2023-03-01T00:55:10;2.10;99.90
27544;DHT22;17996;51.056;3.656;2023-03-01T00:57:36;2.10;99.90
27544;DHT22;17996;51.056;3.656;2023-03-01T01:00:03;2.10;99.90
27544;DHT22;17996;51.056;3.656;2023-03-01T01:02:29;2.10;99.90
27544;DHT22;17996;51.056;3.656;2023-03-01T01:04:55;2.10;99.90
27544;DHT22;17996;51.056;3.656;2023-03-01T01:07:21;2.10;99.90
27544;DHT22;17996;51.056;3.656;2023-03-01T01:09:46;2.10;99.90
27544;DHT22;17996;51.056;3.656;2023-03-01T01:12:12;2.10;99.90
27544;DHT22;17996;51.056;3.656;2023-03-01T01:14:38;2.10;99.90
27544;DHT22;17996;51.056;3.656;2023-03-01T01:17:04;2.10;99.90
27544;DHT22;17996;51.056;3.656;2023-03-01T01:19:29;2.10;99.90
27544;DHT22;17996;51.056;3.656;2023-03-01T01:21:55;2.00;99.90
27544;DHT22;17996;51.056;3.656;2023-03-01T01:24:21;2.00;99.90
27544;DHT22;17996;51.056;3.656;2023-03-01T01:26:46;1.90;99.90
27544;DHT22;17996;51.056;3.656;2023-03-01T01:29:12;1.90;99.90
27544;DHT22;17996;51.056;3.656;2023-03-01T01:31:39;1.90;99.90
27544;DHT22;17996;51.056;3.656;2023-03-01T01:34:07;1.90;99.90
27544;DHT22;17996;51.056;3.656;2023-03-01T01:36:34;1.90;99.90
27544;DHT22;17996;51.056;3.656;2023-03-01T01:39:00;1.90;99.90
27544;DHT22;17996;51.056;3.656;2023-03-01T01:41:27;1.90;99.90
27544;DHT22;17996;51.056;3.656;2023-03-01T01:44:22;1.90;99.90
27544;DHT22;17996;51.056;3.656;2023-03-01T01:49:46;1.90;99.90
27544;DHT22;17996;51.056;3.656;2023-03-01T01:52:17;1.90;99.90
27544;DHT22;17996;51.056;3.656;2023-03-01T01:55:08;1.80;99.90
27544;DHT22;17996;51.056;3.656;2023-03-01T01:57:40;1.90;99.90
27544;DHT22;17996;51.056;3.656;2023-03-01T02:02:36;1.90;99.90
27544;DHT22;17996;51.056;3.656;2023-03-01T02:07:44;1.90;99.90
27544;DHT22;17996;51.056;3.656;2023-03-01T02:10:10;1.80;99.90
27544;DHT22;17996;51.056;3.656;2023-03-01T02:12:36;1.80;99.90
27544;DHT22;17996;51.056;3.656;2023-03-01T02:15:02;1.70;99.90
27544;DHT22;17996;51.056;3.656;2023-03-01T02:17:28;1.70;99.90
27544;DHT22;17996;51.056;3.656;2023-03-01T02:20:20;1.70;99.90
27544;DHT22;17996;51.056;3.656;2023-03-01T02:22:47;1.70;99.90
27544;DHT22;17996;51.056;3.656;2023-03-01T02:28:07;1.70;99.90
27544;DHT22;17996;51.056;3.656;2023-03-01T02:30:34;1.70;99.90
27544;DHT22;17996;51.056;3.656;2023-03-01T02:33:00;1.80;99.90
27544;DHT22;17996;51.056;3.656;2023-03-01T02:35:37;1.60;99.90
27544;DHT22;17996;51.056;3.656;2023-03-01T02:38:06;1.50;99.90
27544;DHT22;17996;51.056;3.656;2023-03-01T02:40:33;1.40;99.90
27544;DHT22;17996;51.056;3.656;2023-03-01T02:42:59;1.40;99.90
27544;DHT22;17996;51.056;3.656;2023-03-01T02:45:26;1.40;99.90
27544;DHT22;17996;51.056;3.656;2023-03-01T02:47:56;1.30;99.90
27544;DHT22;17996;51.056;3.656;2023-03-01T02:55:22;1.40;99.90
27544;DHT22;17996;51.056;3.656;2023-03-01T02:57:48;1.40;99.90
27544;DHT22;17996;51.056;3.656;2023-03-01T03:00:33;1.50;99.90
27544;DHT22;17996;51.056;3.656;2023-03-01T03:03:01;1.40;99.90
27544;DHT22;17996;51.056;3.656;2023-03-01T03:05:29;1.40;99.90
27544;DHT22;17996;51.056;3.656;2023-03-01T03:07:56;1.40;99.90
27544;DHT22;17996;51.056;3.656;2023-03-01T03:10:30;1.40;99.90
27544;DHT22;17996;51.056;3.656;2023-03-01T03:12:59;1.40;99.90
27544;DHT22;17996;51.056;3.656;2023-03-01T03:15:27;1.30;99.90
27544;DHT22;17996;51.056;3.656;2023-03-01T03:17:53;1.20;99.90
27544;DHT22;17996;51.056;3.656;2023-03-01T03:20:20;1.30;99.90
27544;DHT22;17996;51.056;3.656;2023-03-01T03:22:49;1.20;99.90
27544;DHT22;17996;51.056;3.656;2023-03-01T03:25:16;1.30;99.90
27544;DHT22;17996;51.056;3.656;2023-03-01T03:27:44;1.30;99.90
27544;DHT22;17996;51.056;3.656;2023-03-01T03:30:14;1.30;99.90
27544;DHT22;17996;51.056;3.656;2023-03-01T03:32:41;1.30;99.90
27544;DHT22;17996;51.056;3.656;2023-03-01T03:35:09;1.30;99.90
27544;DHT22;17996;51.056;3.656;2023-03-01T03:37:39;1.30;99.90
27544;DHT22;17996;51.056;3.656;2023-03-01T03:40:23;1.30;99.90
27544;DHT22;17996;51.056;3.656;2023-03-01T03:42:49;1.30;99.90
27544;DHT22;17996;51.056;3.656;2023-03-01T03:45:18;1.20;99.90
27544;DHT22;17996;51.056;3.656;2023-03-01T03:47:44;1.30;99.90
27544;DHT22;17996;51.056;3.656;2023-03-01T03:50:12;1.30;99.90
27544;DHT22;17996;51.056;3.656;2023-03-01T03:52:38;1.30;99.90
27544;DHT22;17996;51.056;3.656;2023-03-01T03:55:05;1.20;99.90
27544;DHT22;17996;51.056;3.656;2023-03-01T03:57:42;1.20;99.90
27544;DHT22;17996;51.056;3.656;2023-03-01T04:00:10;1.20;99.90
27544;DHT22;17996;51.056;3.656;2023-03-01T04:02:42;1.20;99.90
27544;DHT22;17996;51.056;3.656;2023-03-01T04:05:10;1.20;99.90
27544;DHT22;17996;51.056;3.656;2023-03-01T04:07:36;1.20;99.90
27544;DHT22;17996;51.056;3.656;2023-03-01T04:10:07;1.20;99.90
27544;DHT22;17996;51.056;3.656;2023-03-01T04:12:34;1.20;99.90
27544;DHT22;17996;51.056;3.656;2023-03-01T04:15:01;1.10;99.90
27544;DHT22;17996;51.056;3.656;2023-03-01T04:17:27;1.10;99.90
27544;DHT22;17996;51.056;3.656;2023-03-01T04:19:52;1.10;99.90
27544;DHT22;17996;51.056;3.656;2023-03-01T04:22:18;1.10;99.90
27544;DHT22;17996;51.056;3.656;2023-03-01T04:24:44;1.20;99.90
27544;DHT22;17996;51.056;3.656;2023-03-01T04:27:11;1.20;99.90
27544;DHT22;17996;51.056;3.656;2023-03-01T04:29:37;1.20;99.90
27544;DHT22;17996;51.056;3.656;2023-03-01T04:32:03;1.30;99.90
27544;DHT22;17996;51.056;3.656;2023-03-01T04:34:29;1.30;99.90
27544;DHT22;17996;51.056;3.656;2023-03-01T04:36:55;1.20;99.90
27544;DHT22;17996;51.056;3.656;2023-03-01T04:39:21;1.20;99.90
27544;DHT22;17996;51.056;3.656;2023-03-01T04:41:47;1.30;99.90
27544;DHT22;17996;51.056;3.656;2023-03-01T04:44:12;1.30;99.90
27544;DHT22;17996;51.056;3.656;2023-03-01T04:46:39;1.20;99.90
27544;DHT22;17996;51.056;3.656;2023-03-01T04:49:04;1.20;99.90
27544;DHT22;17996;51.056;3.656;2023-03-01T04:51:31;1.30;99.90
27544;DHT22;17996;51.056;3.656;2023-03-01T04:53:58;1.20;99.90
27544;DHT22;17996;51.056;3.656;2023-03-01T04:56:26;1.20;99.90
27544;DHT22;17996;51.056;3.656;2023-03-01T04:58:53;1.20;99.90
27544;DHT22;17996;51.056;3.656;2023-03-01T05:01:20;1.20;99.90
27544;DHT22;17996;51.056;3.656;2023-03-01T05:03:50;1.10;99.90
27544;DHT22;17996;51.056;3.656;2023-03-01T05:06:17;1.10;99.90
27544;DHT22;17996;51.056;3.656;2023-03-01T05:08:44;1.20;99.90
27544;DHT22;17996;51.056;3.656;2023-03-01T05:11:10;1.10;99.90
27544;DHT22;17996;51.056;3.656;2023-03-01T05:13:37;1.10;99.90
27544;DHT22;17996;51.056;3.656;2023-03-01T05:16:04;1.10;99.90
27544;DHT22;17996;51.056;3.656;2023-03-01T05:18:32;1.20;99.90
27544;DHT22;17996;51.056;3.656;2023-03-01T05:21:10;1.20;99.90
27544;DHT22;17996;51.056;3.656;2023-03-01T05:23:36;1.20;99.90
27544;DHT22;17996;51.056;3.656;2023-03-01T05:26:03;1.10;99.90
27544;DHT22;17996;51.056;3.656;2023-03-01T05:28:30;1.10;99.90
27544;DHT22;17996;51.056;3.656;2023-03-01T05:30:56;1.20;99.90
27544;DHT22;17996;51.056;3.656;2023-03-01T05:33:23;1.20;99.90
27544;DHT22;17996;51.056;3.656;2023-03-01T05:35:50;1.10;99.90
27544;DHT22;17996;51.056;3.656;2023-03-01T05:38:17;1.10;99.90
27544;DHT22;17996;51.056;3.656;2023-03-01T05:40:44;1.10;99.90
27544;DHT22;17996;51.056;3.656;2023-03-01T05:43:10;1.10;99.90
27544;DHT22;17996;51.056;3.656;2023-03-01T05:45:37;1.00;99.90
27544;DHT22;17996;51.056;3.656;2023-03-01T05:48:04;1.00;99.90
27544;DHT22;17996;51.056;3.656;2023-03-01T05:50:34;1.00;99.90
27544;DHT22;17996;51.056;3.656;2023-03-01T05:53:06;1.00;99.90
27544;DHT22;17996;51.056;3.656;2023-03-01T05:55:33;1.00;99.90
27544;DHT22;17996;51.056;3.656;2023-03-01T05:58:01;1.00;99.90
27544;DHT22;17996;51.056;3.656;2023-03-01T06:00:28;0.90;99.90
27544;DHT22;17996;51.056;3.656;2023-03-01T06:02:55;1.00;99.90
27544;DHT22;17996;51.056;3.656;2023-03-01T06:05:21;1.00;99.90
27544;DHT22;17996;51.056;3.656;2023-03-01T06:07:48;0.90;99.90
27544;DHT22;17996;51.056;3.656;2023-03-01T06:10:14;0.90;99.90
27544;DHT22;17996;51.056;3.656;2023-03-01T06:12:41;1.00;99.90
27544;DHT22;17996;51.056;3.656;2023-03-01T06:15:08;0.90;99.90
27544;DHT22;17996;51.056;3.656;2023-03-01T06:17:38;0.90;99.90
27544;DHT22;17996;51.056;3.656;2023-03-01T06:20:39;1.00;99.90
27544;DHT22;17996;51.056;3.656;2023-03-01T06:22:58;0.90;99.90
27544;DHT22;17996;51.056;3.656;2023-03-01T06:25:26;0.80;99.90
27544;DHT22;17996;51.056;3.656;2023-03-01T06:27:52;0.80;99.90
27544;DHT22;17996;51.056;3.656;2023-03-01T06:30:19;0.90;99.90
27544;DHT22;17996;51.056;3.656;2023-03-01T06:32:45;0.90;99.90
27544;DHT22;17996;51.056;3.656;2023-03-01T06:35:12;1.00;99.90
27544;DHT22;17996;51.056;3.656;2023-03-01T06:37:39;0.90;99.90
27544;DHT22;17996;51.056;3.656;2023-03-01T06:40:06;0.80;99.90
27544;DHT22;17996;51.056;3.656;2023-03-01T06:42:36;0.80;99.90
27544;DHT22;17996;51.056;3.656;2023-03-01T06:45:04;0.90;99.90
27544;DHT22;17996;51.056;3.656;2023-03-01T06:47:30;0.80;99.90
27544;DHT22;17996;51.056;3.656;2023-03-01T06:49:56;0.90;99.90
27544;DHT22;17996;51.056;3.656;2023-03-01T06:52:22;0.80;99.90
27544;DHT22;17996;51.056;3.656;2023-03-01T06:54:47;0.80;99.90
27544;DHT22;17996;51.056;3.656;2023-03-01T06:57:13;1.00;99.90
27544;DHT22;17996;51.056;3.656;2023-03-01T06:59:38;1.00;99.90
27544;DHT22;17996;51.056;3.656;2023-03-01T07:02:04;1.00;99.90
27544;DHT22;17996;51.056;3.656;2023-03-01T07:04:30;0.90;99.90
27544;DHT22;17996;51.056;3.656;2023-03-01T07:06:56;1.00;99.90
27544;DHT22;17996;51.056;3.656;2023-03-01T07:09:22;1.10;99.90
27544;DHT22;17996;51.056;3.656;2023-03-01T07:11:49;0.90;99.90
27544;DHT22;17996;51.056;3.656;2023-03-01T07:14:15;1.00;99.90
27544;DHT22;17996;51.056;3.656;2023-03-01T07:16:41;0.90;99.90
27544;DHT22;17996;51.056;3.656;2023-03-01T07:19:06;0.90;99.90
27544;DHT22;17996;51.056;3.656;2023-03-01T07:21:32;1.00;99.90
27544;DHT22;17996;51.056;3.656;2023-03-01T07:23:58;1.00;99.90
27544;DHT22;17996;51.056;3.656;2023-03-01T07:26:23;1.20;99.90
27544;DHT22;17996;51.056;3.656;2023-03-01T07:28:49;1.00;99.90
27544;DHT22;17996;51.056;3.656;2023-03-01T07:31:15;1.00;99.90
27544;DHT22;17996;51.056;3.656;2023-03-01T07:33:40;1.00;99.90
27544;DHT22;17996;51.056;3.656;2023-03-01T07:36:06;1.10;99.90
27544;DHT22;17996;51.056;3.656;2023-03-01T07:38:32;1.10;99.90
27544;DHT22;17996;51.056;3.656;2023-03-01T07:41:00;1.30;99.90
27544;DHT22;17996;51.056;3.656;2023-03-01T07:43:27;1.40;99.90
27544;DHT22;17996;51.056;3.656;2023-03-01T07:45:53;1.30;99.90
27544;DHT22;17996;51.056;3.656;2023-03-01T07:48:19;1.30;99.90
27544;DHT22;17996;51.056;3.656;2023-03-01T07:50:45;1.40;99.90
27544;DHT22;17996;51.056;3.656;2023-03-01T07:53:10;1.40;99.90
27544;DHT22;17996;51.056;3.656;2023-03-01T07:55:36;1.50;99.90
27544;DHT22;17996;51.056;3.656;2023-03-01T07:58:02;1.60;99.90
27544;DHT22;17996;51.056;3.656;2023-03-01T08:00:28;1.80;99.90
27544;DHT22;17996;51.056;3.656;2023-03-01T08:02:54;1.70;99.90
27544;DHT22;17996;51.056;3.656;2023-03-01T08:05:20;1.70;99.90
27544;DHT22;17996;51.056;3.656;2023-03-01T08:07:47;1.80;99.90
27544;DHT22;17996;51.056;3.656;2023-03-01T08:10:13;1.90;99.90
27544;DHT22;17996;51.056;3.656;2023-03-01T08:12:39;1.90;99.90
27544;DHT22;17996;51.056;3.656;2023-03-01T08:15:05;2.10;99.90
27544;DHT22;17996;51.056;3.656;2023-03-01T08:17:30;2.00;99.90
27544;DHT22;17996;51.056;3.656;2023-03-01T08:19:56;2.10;99.90
27544;DHT22;17996;51.056;3.656;2023-03-01T08:22:22;2.40;99.90
27544;DHT22;17996;51.056;3.656;2023-03-01T08:24:47;2.20;99.90
27544;DHT22;17996;51.056;3.656;2023-03-01T08:27:15;2.20;99.90
27544;DHT22;17996;51.056;3.656;2023-03-01T08:29:40;2.30;99.90
27544;DHT22;17996;51.056;3.656;2023-03-01T08:32:06;2.40;99.90
27544;DHT22;17996;51.056;3.656;2023-03-01T08:34:32;2.40;99.90
27544;DHT22;17996;51.056;3.656;2023-03-01T08:36:57;2.50;99.90
27544;DHT22;17996;51.056;3.656;2023-03-01T08:39:23;2.60;99.90
27544;DHT22;17996;51.056;3.656;2023-03-01T08:41:49;2.60;99.90
27544;DHT22;17996;51.056;3.656;2023-03-01T08:44:15;2.70;99.90
27544;DHT22;17996;51.056;3.656;2023-03-01T08:46:42;2.70;99.90
27544;DHT22;17996;51.056;3.656;2023-03-01T08:49:16;2.80;99.90
27544;DHT22;17996;51.056;3.656;2023-03-01T08:51:43;2.80;99.90
27544;DHT22;17996;51.056;3.656;2023-03-01T08:54:12;2.80;99.90
27544;DHT22;17996;51.056;3.656;2023-03-01T08:56:38;2.80;99.90
27544;DHT22;17996;51.056;3.656;2023-03-01T08:59:04;2.90;99.90
27544;DHT22;17996;51.056;3.656;2023-03-01T09:01:30;3.00;99.90
27544;DHT22;17996;51.056;3.656;2023-03-01T09:03:56;2.90;99.90
27544;DHT22;17996;51.056;3.656;2023-03-01T09:06:21;2.90;99.90
27544;DHT22;17996;51.056;3.656;2023-03-01T09:08:49;3.00;99.90
27544;DHT22;17996;51.056;3.656;2023-03-01T09:11:18;3.10;99.90
27544;DHT22;17996;51.056;3.656;2023-03-01T09:13:44;3.10;99.90
27544;DHT22;17996;51.056;3.656;2023-03-01T09:16:12;3.10;99.90
27544;DHT22;17996;51.056;3.656;2023-03-01T09:18:38;3.20;99.90
27544;DHT22;17996;51.056;3.656;2023-03-01T09:21:23;3.20;99.90
27544;DHT22;17996;51.056;3.656;2023-03-01T09:23:49;3.20;99.90
27544;DHT22;17996;51.056;3.656;2023-03-01T09:26:17;3.20;99.90
27544;DHT22;17996;51.056;3.656;2023-03-01T09:28:45;3.20;99.90
27544;DHT22;17996;51.056;3.656;2023-03-01T09:31:12;3.20;99.90
27544;DHT22;17996;51.056;3.656;2023-03-01T09:33:39;3.30;99.90
27544;DHT22;17996;51.056;3.656;2023-03-01T09:36:07;3.30;99.90
27544;DHT22;17996;51.056;3.656;2023-03-01T09:38:33;3.40;99.90
27544;DHT22;17996;51.056;3.656;2023-03-01T09:41:00;3.40;99.90
27544;DHT22;17996;51.056;3.656;2023-03-01T09:43:45;3.50;99.90
27544;DHT22;17996;51.056;3.656;2023-03-01T09:46:13;3.50;99.90
27544;DHT22;17996;51.056;3.656;2023-03-01T09:48:48;3.60;99.90
27544;DHT22;17996;51.056;3.656;2023-03-01T09:51:26;3.70;99.90
27544;DHT22;17996;51.056;3.656;2023-03-01T09:53:52;3.70;99.90
27544;DHT22;17996;51.056;3.656;2023-03-01T09:56:39;3.80;99.90
27544;DHT22;17996;51.056;3.656;2023-03-01T09:59:16;3.80;99.90
27544;DHT22;17996;51.056;3.656;2023-03-01T10:01:53;3.80;99.90
27544;DHT22;17996;51.056;3.656;2023-03-01T10:09:38;3.80;99.90
27544;DHT22;17996;51.056;3.656;2023-03-01T10:12:15;3.90;99.90
27544;DHT22;17996;51.056;3.656;2023-03-01T10:22:46;3.90;99.90
27544;DHT22;17996;51.056;3.656;2023-03-01T10:28:08;4.00;99.90
27544;DHT22;17996;51.056;3.656;2023-03-01T10:30:38;4.00;99.90
27544;DHT22;17996;51.056;3.656;2023-03-01T10:35:49;4.10;99.90
27544;DHT22;17996;51.056;3.656;2023-03-01T10:38:16;4.20;99.90
27544;DHT22;17996;51.056;3.656;2023-03-01T10:40:56;4.20;99.90
27544;DHT22;17996;51.056;3.656;2023-03-01T10:43:24;4.30;99.90
27544;DHT22;17996;51.056;3.656;2023-03-01T10:45:51;4.30;99.90
27544;DHT22;17996;51.056;3.656;2023-03-01T10:48:18;4.40;99.90
27544;DHT22;17996;51.056;3.656;2023-03-01T10:50:48;4.50;99.90
27544;DHT22;17996;51.056;3.656;2023-03-01T10:56:01;4.60;99.90
27544;DHT22;17996;51.056;3.656;2023-03-01T10:58:27;4.60;99.90
27544;DHT22;17996;51.056;3.656;2023-03-01T11:00:56;4.50;99.90
27544;DHT22;17996;51.056;3.656;2023-03-01T11:03:33;4.60;99.90
27544;DHT22;17996;51.056;3.656;2023-03-01T11:08:46;4.70;99.90
27544;DHT22;17996;51.056;3.656;2023-03-01T11:11:22;4.70;99.90
27544;DHT22;17996;51.056;3.656;2023-03-01T11:16:34;4.80;99.90
27544;DHT22;17996;51.056;3.656;2023-03-01T11:19:17;4.70;99.90
27544;DHT22;17996;51.056;3.656;2023-03-01T11:24:42;4.80;99.90
27544;DHT22;17996;51.056;3.656;2023-03-01T11:27:31;4.80;99.90
27544;DHT22;17996;51.056;3.656;2023-03-01T11:30:05;4.80;99.90
27544;DHT22;17996;51.056;3.656;2023-03-01T11:32:47;4.90;99.90
27544;DHT22;17996;51.056;3.656;2023-03-01T11:35:25;4.90;99.90
27544;DHT22;17996;51.056;3.656;2023-03-01T11:38:30;4.90;99.90
27544;DHT22;17996;51.056;3.656;2023-03-01T11:41:25;5.00;99.90
27544;DHT22;17996;51.056;3.656;2023-03-01T11:43:56;5.00;99.90
27544;DHT22;17996;51.056;3.656;2023-03-01T11:51:59;5.30;99.90
27544;DHT22;17996;51.056;3.656;2023-03-01T11:57:46;5.20;99.90
27544;DHT22;17996;51.056;3.656;2023-03-01T12:06:03;5.30;99.90
27544;DHT22;17996;51.056;3.656;2023-03-01T12:08:45;5.40;99.90
27544;DHT22;17996;51.056;3.656;2023-03-01T12:25:04;5.60;99.90
27544;DHT22;17996;51.056;3.656;2023-03-01T12:38:20;5.90;99.90
27544;DHT22;17996;51.056;3.656;2023-03-01T12:48:34;6.00;99.90
27544;DHT22;17996;51.056;3.656;2023-03-01T12:51:09;6.00;99.90
27544;DHT22;17996;51.056;3.656;2023-03-01T12:53:41;6.10;99.90
27544;DHT22;17996;51.056;3.656;2023-03-01T12:56:11;6.00;99.90
27544;DHT22;17996;51.056;3.656;2023-03-01T13:20:20;6.20;99.90
27544;DHT22;17996;51.056;3.656;2023-03-01T13:22:47;6.20;99.90
27544;DHT22;17996;51.056;3.656;2023-03-01T13:25:16;6.30;99.90
27544;DHT22;17996;51.056;3.656;2023-03-01T13:27:42;6.30;99.90
27544;DHT22;17996;51.056;3.656;2023-03-01T13:30:39;6.30;99.90
27544;DHT22;17996;51.056;3.656;2023-03-01T13:33:41;6.40;99.90
27544;DHT22;17996;51.056;3.656;2023-03-01T13:36:08;6.40;99.90
27544;DHT22;17996;51.056;3.656;2023-03-01T13:41:47;6.40;99.90
27544;DHT22;17996;51.056;3.656;2023-03-01T13:46:56;6.40;99.90
27544;DHT22;17996;51.056;3.656;2023-03-01T13:49:27;6.40;99.90
27544;DHT22;17996;51.056;3.656;2023-03-01T13:51:53;6.50;99.90
27544;DHT22;17996;51.056;3.656;2023-03-01T13:54:29;6.60;99.90
27544;DHT22;17996;51.056;3.656;2023-03-01T13:56:57;6.60;99.90
27544;DHT22;17996;51.056;3.656;2023-03-01T13:59:23;6.60;99.90
27544;DHT22;17996;51.056;3.656;2023-03-01T14:01:59;6.70;99.90
27544;DHT22;17996;51.056;3.656;2023-03-01T14:04:30;6.60;99.90
27544;DHT22;17996;51.056;3.656;2023-03-01T14:07:20;6.60;99.90
27544;DHT22;17996;51.056;3.656;2023-03-01T14:09:51;6.70;99.90
27544;DHT22;17996;51.056;3.656;2023-03-01T14:18:10;6.60;99.90
27544;DHT22;17996;51.056;3.656;2023-03-01T14:20:43;6.60;99.90
27544;DHT22;17996;51.056;3.656;2023-03-01T14:23:15;6.60;99.90
27544;DHT22;17996;51.056;3.656;2023-03-01T14:25:48;6.60;99.90
27544;DHT22;17996;51.056;3.656;2023-03-01T14:30:45;6.60;99.90
27544;DHT22;17996;51.056;3.656;2023-03-01T14:38:42;6.80;99.90
27544;DHT22;17996;51.056;3.656;2023-03-01T14:41:11;6.80;99.90
27544;DHT22;17996;51.056;3.656;2023-03-01T14:43:41;6.90;99.90
27544;DHT22;17996;51.056;3.656;2023-03-01T14:46:20;6.90;99.90
27544;DHT22;17996;51.056;3.656;2023-03-01T14:48:50;6.90;99.90
27544;DHT22;17996;51.056;3.656;2023-03-01T14:51:16;6.90;99.90
27544;DHT22;17996;51.056;3.656;2023-03-01T14:53:42;6.80;99.90
27544;DHT22;17996;51.056;3.656;2023-03-01T14:56:13;6.90;99.90
27544;DHT22;17996;51.056;3.656;2023-03-01T14:58:39;6.90;99.90
27544;DHT22;17996;51.056;3.656;2023-03-01T15:01:05;7.10;99.90
27544;DHT22;17996;51.056;3.656;2023-03-01T15:03:40;7.20;99.90
27544;DHT22;17996;51.056;3.656;2023-03-01T15:06:08;7.30;99.90
27544;DHT22;17996;51.056;3.656;2023-03-01T15:08:35;7.40;99.90
27544;DHT22;17996;51.056;3.656;2023-03-01T15:13:48;7.50;99.90
27544;DHT22;17996;51.056;3.656;2023-03-01T15:16:19;7.60;99.90
27544;DHT22;17996;51.056;3.656;2023-03-01T15:18:49;7.60;99.90
27544;DHT22;17996;51.056;3.656;2023-03-01T15:21:21;7.60;99.90
27544;DHT22;17996;51.056;3.656;2023-03-01T15:23:54;7.80;99.90
27544;DHT22;17996;51.056;3.656;2023-03-01T15:26:58;7.90;99.90
27544;DHT22;17996;51.056;3.656;2023-03-01T15:29:22;8.20;99.90
27544;DHT22;17996;51.056;3.656;2023-03-01T15:32:03;8.30;99.90
27544;DHT22;17996;51.056;3.656;2023-03-01T15:34:36;8.20;99.90
27544;DHT22;17996;51.056;3.656;2023-03-01T15:37:04;8.20;99.90
27544;DHT22;17996;51.056;3.656;2023-03-01T15:39:39;8.10;99.90
27544;DHT22;17996;51.056;3.656;2023-03-01T15:44:49;8.20;99.90
27544;DHT22;17996;51.056;3.656;2023-03-01T15:47:29;8.30;99.90
27544;DHT22;17996;51.056;3.656;2023-03-01T15:49:56;8.40;99.90
27544;DHT22;17996;51.056;3.656;2023-03-01T15:52:27;8.40;99.90
27544;DHT22;17996;51.056;3.656;2023-03-01T15:55:04;8.40;99.90
27544;DHT22;17996;51.056;3.656;2023-03-01T15:57:31;8.40;99.90
27544;DHT22;17996;51.056;3.656;2023-03-01T15:59:57;8.20;99.90
27544;DHT22;17996;51.056;3.656;2023-03-01T16:02:23;8.20;99.90
27544;DHT22;17996;51.056;3.656;2023-03-01T16:04:49;8.10;99.90
27544;DHT22;17996;51.056;3.656;2023-03-01T16:07:16;8.20;99.90
27544;DHT22;17996;51.056;3.656;2023-03-01T16:09:42;8.30;99.90
27544;DHT22;17996;51.056;3.656;2023-03-01T16:12:18;8.20;99.90
27544;DHT22;17996;51.056;3.656;2023-03-01T16:14:46;8.30;99.90
27544;DHT22;17996;51.056;3.656;2023-03-01T16:17:11;8.40;99.90
27544;DHT22;17996;51.056;3.656;2023-03-01T16:19:38;8.40;99.90
27544;DHT22;17996;51.056;3.656;2023-03-01T16:22:04;8.20;99.90
27544;DHT22;17996;51.056;3.656;2023-03-01T16:24:30;8.10;99.90
27544;DHT22;17996;51.056;3.656;2023-03-01T16:26:56;8.00;99.90
27544;DHT22;17996;51.056;3.656;2023-03-01T16:29:21;7.80;99.90
27544;DHT22;17996;51.056;3.656;2023-03-01T16:31:47;7.60;99.90
27544;DHT22;17996;51.056;3.656;2023-03-01T16:34:13;7.60;99.90
27544;DHT22;17996;51.056;3.656;2023-03-01T16:36:39;7.50;99.90
27544;DHT22;17996;51.056;3.656;2023-03-01T16:39:05;7.50;99.90
27544;DHT22;17996;51.056;3.656;2023-03-01T16:41:31;7.50;99.90
27544;DHT22;17996;51.056;3.656;2023-03-01T16:43:57;7.40;99.90
27544;DHT22;17996;51.056;3.656;2023-03-01T16:46:25;7.30;99.90
27544;DHT22;17996;51.056;3.656;2023-03-01T16:48:51;7.30;99.90
27544;DHT22;17996;51.056;3.656;2023-03-01T16:51:18;7.30;99.90
27544;DHT22;17996;51.056;3.656;2023-03-01T16:53:44;7.30;99.90
27544;DHT22;17996;51.056;3.656;2023-03-01T16:56:12;7.20;99.90
27544;DHT22;17996;51.056;3.656;2023-03-01T16:58:38;7.20;99.90
27544;DHT22;17996;51.056;3.656;2023-03-01T17:01:10;7.10;99.90
27544;DHT22;17996;51.056;3.656;2023-03-01T17:03:36;6.90;99.90
27544;DHT22;17996;51.056;3.656;2023-03-01T17:06:07;6.90;99.90
27544;DHT22;17996;51.056;3.656;2023-03-01T17:08:34;6.80;99.90
27544;DHT22;17996;51.056;3.656;2023-03-01T17:11:14;6.70;99.90
27544;DHT22;17996;51.056;3.656;2023-03-01T17:13:41;6.60;99.90
27544;DHT22;17996;51.056;3.656;2023-03-01T17:16:10;6.50;99.90
27544;DHT22;17996;51.056;3.656;2023-03-01T17:18:36;6.50;99.90
27544;DHT22;17996;51.056;3.656;2023-03-01T17:21:02;6.40;99.90
27544;DHT22;17996;51.056;3.656;2023-03-01T17:23:30;6.40;99.90
27544;DHT22;17996;51.056;3.656;2023-03-01T17:25:56;6.30;99.90
27544;DHT22;17996;51.056;3.656;2023-03-01T17:28:24;6.30;99.90
27544;DHT22;17996;51.056;3.656;2023-03-01T17:30:51;6.20;99.90
27544;DHT22;17996;51.056;3.656;2023-03-01T17:33:17;6.10;99.90
27544;DHT22;17996;51.056;3.656;2023-03-01T17:35:44;6.10;99.90
27544;DHT22;17996;51.056;3.656;2023-03-01T17:38:14;6.10;99.90
27544;DHT22;17996;51.056;3.656;2023-03-01T17:40:41;6.10;99.90
27544;DHT22;17996;51.056;3.656;2023-03-01T17:43:08;6.00;99.90
27544;DHT22;17996;51.056;3.656;2023-03-01T17:45:36;6.00;99.90
27544;DHT22;17996;51.056;3.656;2023-03-01T17:48:03;6.00;99.90
27544;DHT22;17996;51.056;3.656;2023-03-01T17:50:29;5.90;99.90
27544;DHT22;17996;51.056;3.656;2023-03-01T17:52:54;5.90;99.90
27544;DHT22;17996;51.056;3.656;2023-03-01T17:55:21;5.80;99.90
27544;DHT22;17996;51.056;3.656;2023-03-01T17:57:46;5.80;99.90
27544;DHT22;17996;51.056;3.656;2023-03-01T18:00:14;5.80;99.90
27544;DHT22;17996;51.056;3.656;2023-03-01T18:02:41;5.80;99.90
27544;DHT22;17996;51.056;3.656;2023-03-01T18:05:07;5.70;99.90
27544;DHT22;17996;51.056;3.656;2023-03-01T18:07:34;5.70;99.90
27544;DHT22;17996;51.056;3.656;2023-03-01T18:10:00;5.70;99.90
27544;DHT22;17996;51.056;3.656;2023-03-01T18:12:25;5.70;99.90
27544;DHT22;17996;51.056;3.656;2023-03-01T18:14:51;5.60;99.90